createdAt,value
2022-10-30T00:00:02.818Z,85.92
2022-10-30T00:01:02.377Z,85.92
2022-10-30T00:02:02.048Z,85.72
2022-10-30T00:03:02.992Z,85.52
2022-10-30T00:04:02.447Z,85.62
2022-10-30T00:05:02.428Z,85.52
2022-10-30T00:06:02.510Z,85.42
2022-10-30T00:07:02.341Z,85.02
2022-10-30T00:08:02.615Z,85.02
2022-10-30T00:09:02.419Z,85.02
2022-10-30T00:10:02.643Z,84.91
2022-10-30T00:11:02.517Z,85.22
2022-10-30T00:12:02.657Z,85.52
2022-10-30T00:13:02.286Z,85.42
2022-10-30T00:14:02.745Z,85.08
2022-10-30T00:15:02.459Z,84.97
2022-10-30T00:16:02.531Z,84.77
2022-10-30T00:17:02.239Z,84.67
2022-10-30T00:18:02.371Z,84.67
2022-10-30T00:19:01.976Z,85.28
2022-10-30T00:20:02.093Z,85.68
2022-10-30T00:23:02.789Z,84.77
2022-10-30T00:24:02.348Z,84.97
2022-10-30T00:25:02.289Z,84.67
2022-10-30T00:26:02.346Z,84.57
2022-10-30T00:27:01.805Z,84.37
2022-10-30T00:28:02.091Z,84.47
2022-10-30T00:29:02.278Z,84.47
2022-10-30T00:30:02.234Z,84.37
2022-10-30T00:31:01.792Z,84.17
2022-10-30T00:32:02.164Z,84.17
2022-10-30T00:33:02.616Z,84.37
2022-10-30T00:34:02.398Z,84.88
2022-10-30T00:35:02.618Z,85.58
2022-10-30T00:36:02.723Z,85.38
2022-10-30T00:37:01.924Z,85.08
2022-10-30T00:38:02.185Z,84.67
2022-10-30T00:39:02.252Z,84.77
2022-10-30T00:40:01.862Z,84.47
2022-10-30T00:41:01.871Z,84.27
2022-10-30T00:42:02.624Z,84.27
2022-10-30T00:43:02.266Z,84.37
2022-10-30T00:44:02.284Z,84.37
2022-10-30T00:45:02.159Z,84.51
2022-10-30T00:46:02.130Z,84.61
2022-10-30T00:47:02.990Z,84.61
2022-10-30T00:48:03.001Z,84.61
2022-10-30T00:49:03.243Z,84.81
2022-10-30T00:50:03.163Z,84.91
2022-10-30T00:51:03.054Z,84.51
2022-10-30T00:52:02.672Z,84.37
2022-10-30T00:53:02.910Z,84.37
2022-10-30T00:54:02.283Z,84.27
2022-10-30T00:55:02.956Z,84.27
2022-10-30T00:56:02.751Z,84.17
2022-10-30T00:57:02.775Z,84.17
2022-10-30T00:58:02.696Z,84.37
2022-10-30T00:59:02.404Z,84.57
2022-10-30T01:00:02.679Z,84.88
2022-10-30T01:01:02.785Z,84.27
2022-10-30T01:02:02.765Z,84.27
2022-10-30T01:03:02.708Z,84.61
2022-10-30T01:04:02.556Z,84.47
2022-10-30T01:05:02.756Z,84.71
2022-10-30T01:06:02.657Z,84.81
2022-10-30T01:07:01.874Z,85.02
2022-10-30T01:08:02.435Z,85.02
2022-10-30T01:09:02.400Z,85.02
2022-10-30T01:10:02.158Z,85.11
2022-10-30T01:11:02.301Z,85.42
2022-10-30T01:12:02.760Z,85.42
2022-10-30T01:13:03.019Z,85.52
2022-10-30T01:14:02.851Z,85.76
2022-10-30T01:15:02.713Z,85.86
2022-10-30T01:16:02.606Z,86.07
2022-10-30T01:17:02.268Z,85.96
2022-10-30T01:18:02.409Z,86.07
2022-10-30T01:19:01.822Z,86.16
2022-10-30T01:21:01.871Z,86.16
2022-10-30T01:22:02.117Z,86.16
2022-10-30T01:23:02.646Z,86.16
2022-10-30T01:24:02.046Z,85.76
2022-10-30T01:25:02.184Z,85.46
2022-10-30T01:26:02.068Z,85.86
2022-10-30T01:27:02.589Z,85.66
2022-10-30T01:28:02.162Z,85.16
2022-10-30T01:29:02.801Z,85.36
2022-10-30T01:30:03.052Z,85.46
2022-10-30T01:31:02.739Z,85.36
2022-10-30T01:32:02.241Z,85.46
2022-10-30T01:33:02.190Z,85.16
2022-10-30T01:34:02.443Z,84.95
2022-10-30T01:35:01.772Z,85.60
2022-10-30T01:36:02.373Z,85.70
2022-10-30T01:37:03.001Z,85.70
2022-10-30T01:38:02.711Z,85.80
2022-10-30T01:39:02.951Z,85.30
2022-10-30T01:40:02.581Z,84.95
2022-10-30T01:41:02.799Z,85.36
2022-10-30T01:42:03.237Z,85.50
2022-10-30T01:43:03.472Z,86.00
2022-10-30T01:44:03.246Z,85.60
2022-10-30T01:45:03.101Z,85.90
2022-10-30T01:46:03.480Z,86.21
2022-10-30T01:47:02.355Z,85.60
2022-10-30T01:48:02.341Z,85.19
2022-10-30T01:49:02.680Z,84.99
2022-10-30T01:50:02.328Z,84.89
2022-10-30T01:51:02.262Z,84.99
2022-10-30T01:52:02.877Z,85.19
2022-10-30T01:53:02.651Z,85.40
2022-10-30T01:54:02.331Z,85.80
2022-10-30T01:55:02.236Z,86.00
2022-10-30T01:56:02.299Z,86.21
2022-10-30T01:57:02.581Z,86.21
2022-10-30T01:58:02.755Z,86.15
2022-10-30T01:59:02.936Z,86.35
2022-10-30T02:00:02.600Z,86.25
2022-10-30T02:01:02.917Z,86.55
2022-10-30T02:02:03.553Z,86.65
2022-10-30T02:03:03.420Z,86.45
2022-10-30T02:05:03.181Z,86.95
2022-10-30T02:06:03.526Z,86.75
2022-10-30T02:07:03.955Z,86.35
2022-10-30T02:08:03.426Z,86.65
2022-10-30T02:09:03.298Z,86.55
2022-10-30T02:10:03.476Z,86.75
2022-10-30T02:11:03.518Z,87.36
2022-10-30T02:12:02.783Z,87.60
2022-10-30T02:13:02.981Z,88.10
2022-10-30T02:14:03.076Z,88.31
2022-10-30T02:15:02.573Z,88.31
2022-10-30T02:16:02.783Z,87.81
2022-10-30T02:17:03.353Z,87.70
2022-10-30T02:18:03.259Z,87.50
2022-10-30T02:19:02.692Z,88.21
2022-10-30T02:20:03.111Z,88.65
2022-10-30T02:21:03.116Z,88.65
2022-10-30T02:22:03.386Z,88.01
2022-10-30T02:23:03.766Z,87.70
2022-10-30T02:24:03.375Z,87.70
2022-10-30T02:25:03.630Z,87.30
2022-10-30T02:26:03.306Z,86.90
2022-10-30T02:27:02.944Z,86.79
2022-10-30T02:28:02.897Z,86.79
2022-10-30T02:29:03.242Z,86.49
2022-10-30T02:30:03.308Z,86.69
2022-10-30T02:31:03.425Z,86.69
2022-10-30T02:32:04.037Z,86.90
2022-10-30T02:33:03.945Z,87.10
2022-10-30T02:34:03.463Z,87.30
2022-10-30T02:35:03.651Z,87.70
2022-10-30T02:36:03.566Z,88.25
2022-10-30T02:37:03.487Z,88.45
2022-10-30T02:38:03.514Z,88.75
2022-10-30T02:39:04.008Z,89.36
2022-10-30T02:40:03.561Z,89.06
2022-10-30T02:41:03.768Z,89.61
2022-10-30T02:42:03.060Z,90.21
2022-10-30T02:43:02.966Z,89.70
2022-10-30T02:44:03.202Z,89.20
2022-10-30T02:45:02.809Z,88.90
2022-10-30T02:46:03.061Z,88.65
2022-10-30T02:47:03.441Z,88.55
2022-10-30T02:48:03.371Z,88.85
2022-10-30T02:49:03.181Z,88.75
2022-10-30T02:50:03.148Z,88.45
2022-10-30T02:51:03.221Z,88.15
2022-10-30T02:52:03.555Z,88.65
2022-10-30T02:53:03.944Z,88.96
2022-10-30T02:54:04.046Z,88.65
2022-10-30T02:55:03.592Z,88.35
2022-10-30T02:56:03.981Z,88.04
2022-10-30T02:57:02.759Z,88.55
2022-10-30T02:58:03.316Z,89.00
2022-10-30T02:59:03.016Z,88.90
2022-10-30T03:00:03.338Z,88.65
2022-10-30T03:01:03.248Z,88.25
2022-10-30T03:02:03.273Z,88.25
2022-10-30T03:03:03.268Z,88.15
2022-10-30T03:04:03.216Z,87.95
2022-10-30T03:05:03.335Z,88.15
2022-10-30T03:06:03.392Z,89.00
2022-10-30T03:07:02.558Z,89.40
2022-10-30T03:08:02.682Z,89.10
2022-10-30T03:09:02.228Z,88.79
2022-10-30T03:10:02.212Z,88.70
2022-10-30T03:11:02.451Z,88.39
2022-10-30T03:12:02.890Z,87.99
2022-10-30T03:13:02.868Z,87.79
2022-10-30T03:14:03.059Z,87.88
2022-10-30T03:15:02.780Z,88.39
2022-10-30T03:16:02.972Z,88.09
2022-10-30T03:17:02.465Z,88.49
2022-10-30T03:18:02.712Z,88.79
2022-10-30T03:19:02.867Z,88.33
2022-10-30T03:20:02.248Z,88.09
2022-10-30T03:21:02.837Z,87.38
2022-10-30T03:22:03.046Z,87.32
2022-10-30T03:23:03.167Z,87.82
2022-10-30T03:24:03.429Z,87.62
2022-10-30T03:25:02.919Z,88.33
2022-10-30T03:26:03.153Z,88.64
2022-10-30T03:27:02.539Z,89.08
2022-10-30T03:28:02.540Z,89.59
2022-10-30T03:29:02.657Z,89.28
2022-10-30T03:30:02.652Z,88.98
2022-10-30T03:31:02.589Z,88.68
2022-10-30T03:32:03.535Z,89.99
2022-10-30T03:33:03.418Z,90.70
2022-10-30T03:34:03.449Z,89.28
2022-10-30T03:35:03.680Z,88.68
2022-10-30T03:36:03.293Z,89.43
2022-10-30T03:37:02.706Z,89.63
2022-10-30T03:38:03.135Z,90.48
2022-10-30T03:39:02.747Z,91.39
2022-10-30T03:40:03.111Z,92.14
2022-10-30T03:41:02.927Z,91.64
2022-10-30T03:42:03.499Z,90.99
2022-10-30T03:43:03.289Z,90.69
2022-10-30T03:44:03.205Z,90.28
2022-10-30T03:45:03.749Z,89.87
2022-10-30T03:46:03.781Z,89.87
2022-10-30T03:47:03.042Z,89.98
2022-10-30T03:48:02.853Z,89.06
2022-10-30T03:49:02.989Z,88.76
2022-10-30T03:50:02.866Z,89.17
2022-10-30T03:51:02.902Z,89.77
2022-10-30T03:52:03.439Z,89.57
2022-10-30T03:53:03.167Z,89.51
2022-10-30T03:54:03.146Z,89.51
2022-10-30T03:55:03.728Z,89.92
2022-10-30T03:56:03.351Z,89.51
2022-10-30T03:57:02.859Z,89.41
2022-10-30T03:58:02.756Z,90.02
2022-10-30T03:59:02.909Z,90.97
2022-10-30T04:00:02.717Z,92.03
2022-10-30T04:01:02.916Z,92.33
2022-10-30T04:02:02.639Z,93.09
2022-10-30T04:03:02.247Z,92.84
2022-10-30T04:04:02.365Z,92.74
2022-10-30T04:05:02.282Z,92.24
2022-10-30T04:06:02.255Z,91.83
2022-10-30T04:07:02.803Z,91.42
2022-10-30T04:08:02.731Z,91.83
2022-10-30T04:09:02.855Z,91.93
2022-10-30T04:10:02.427Z,92.03
2022-10-30T04:11:02.593Z,91.93
2022-10-30T04:12:02.268Z,91.73
2022-10-30T04:13:02.299Z,92.33
2022-10-30T04:14:01.836Z,92.84
2022-10-30T04:15:02.111Z,92.84
2022-10-30T04:16:01.976Z,91.52
2022-10-30T04:17:02.882Z,90.71
2022-10-30T04:18:02.792Z,90.41
2022-10-30T04:19:02.685Z,91.02
2022-10-30T04:20:02.671Z,91.63
2022-10-30T04:21:02.781Z,91.73
2022-10-30T04:22:02.266Z,91.63
2022-10-30T04:23:02.140Z,91.93
2022-10-30T04:24:02.045Z,91.93
2022-10-30T04:25:02.259Z,91.42
2022-10-30T04:26:02.016Z,90.92
2022-10-30T04:27:02.909Z,91.12
2022-10-30T04:28:03.044Z,91.02
2022-10-30T04:29:02.935Z,91.02
2022-10-30T04:30:02.496Z,91.32
2022-10-30T04:31:02.810Z,91.02
2022-10-30T04:32:02.228Z,91.16
2022-10-30T04:33:02.269Z,91.56
2022-10-30T04:34:02.199Z,91.36
2022-10-30T04:35:02.195Z,91.97
2022-10-30T04:36:02.240Z,92.83
2022-10-30T04:37:02.112Z,93.44
2022-10-30T04:38:02.591Z,93.13
2022-10-30T04:39:02.600Z,93.13
2022-10-30T04:40:02.627Z,92.72
2022-10-30T04:41:02.599Z,92.22
2022-10-30T04:42:02.584Z,91.91
2022-10-30T04:43:02.888Z,92.02
2022-10-30T04:44:02.791Z,92.72
2022-10-30T04:45:05.083Z,92.52
2022-10-30T04:46:03.008Z,92.12
2022-10-30T04:47:02.135Z,91.71
2022-10-30T04:48:02.490Z,91.61
2022-10-30T04:49:02.198Z,91.30
2022-10-30T04:50:02.488Z,91.41
2022-10-30T04:51:02.396Z,91.20
2022-10-30T04:52:02.361Z,90.94
2022-10-30T04:53:01.939Z,91.05
2022-10-30T04:54:02.235Z,90.39
2022-10-30T04:55:02.228Z,90.80
2022-10-30T04:56:02.106Z,89.98
2022-10-30T04:57:02.155Z,90.29
2022-10-30T04:58:02.352Z,90.59
2022-10-30T04:59:01.873Z,90.80
2022-10-30T05:00:01.771Z,91.05
2022-10-30T05:01:03.192Z,91.86
2022-10-30T05:02:02.122Z,92.41
2022-10-30T05:03:02.384Z,92.30
2022-10-30T05:04:02.406Z,92.82
2022-10-30T05:05:02.407Z,93.43
2022-10-30T05:06:02.302Z,93.02
2022-10-30T05:07:02.443Z,94.13
2022-10-30T05:08:02.970Z,94.59
2022-10-30T05:09:02.034Z,94.28
2022-10-30T05:10:02.477Z,94.89
2022-10-30T05:11:02.302Z,94.89
2022-10-30T05:12:02.207Z,94.79
2022-10-30T05:13:02.435Z,95.24
2022-10-30T05:14:02.504Z,95.95
2022-10-30T05:15:02.649Z,96.26
2022-10-30T05:16:02.072Z,96.36
2022-10-30T05:17:02.747Z,96.26
2022-10-30T05:18:02.830Z,95.45
2022-10-30T05:19:02.883Z,95.04
2022-10-30T05:20:02.640Z,94.59
2022-10-30T05:21:02.795Z,94.28
2022-10-30T05:22:02.017Z,93.87
2022-10-30T05:23:01.856Z,93.87
2022-10-30T05:24:01.767Z,94.28
2022-10-30T05:25:01.609Z,94.18
2022-10-30T05:26:01.556Z,93.67
2022-10-30T05:27:02.205Z,93.98
2022-10-30T05:28:02.463Z,93.73
2022-10-30T05:29:02.009Z,93.57
2022-10-30T05:30:02.668Z,94.28
2022-10-30T05:31:02.042Z,94.48
2022-10-30T05:32:02.005Z,93.57
2022-10-30T05:33:02.054Z,92.76
2022-10-30T05:34:06.161Z,92.65
2022-10-30T05:35:01.893Z,92.45
2022-10-30T05:36:02.146Z,92.35
2022-10-30T05:37:02.143Z,92.45
2022-10-30T05:38:02.771Z,92.76
2022-10-30T05:39:02.367Z,92.65
2022-10-30T05:40:02.132Z,93.51
2022-10-30T05:41:02.700Z,93.41
2022-10-30T05:42:02.426Z,94.02
2022-10-30T05:43:02.524Z,93.51
2022-10-30T05:44:02.599Z,93.71
2022-10-30T05:45:02.905Z,93.31
2022-10-30T05:46:02.881Z,93.82
2022-10-30T05:47:01.951Z,93.10
2022-10-30T05:48:02.611Z,93.10
2022-10-30T05:49:01.780Z,93.01
2022-10-30T05:50:02.295Z,93.31
2022-10-30T05:51:02.157Z,92.60
2022-10-30T05:52:03.017Z,93.41
2022-10-30T05:53:02.640Z,94.27
2022-10-30T05:54:02.625Z,94.27
2022-10-30T05:55:02.954Z,94.17
2022-10-30T05:56:02.514Z,94.07
2022-10-30T05:57:02.504Z,93.45
2022-10-30T05:58:02.537Z,94.17
2022-10-30T05:59:02.525Z,94.07
2022-10-30T06:00:02.518Z,94.27
2022-10-30T06:01:02.109Z,93.66
2022-10-30T06:02:02.391Z,93.86
2022-10-30T06:03:03.064Z,94.07
2022-10-30T06:04:02.515Z,93.86
2022-10-30T06:05:02.463Z,94.47
2022-10-30T06:06:02.372Z,94.88
2022-10-30T06:07:02.636Z,94.88
2022-10-30T06:08:03.298Z,95.39
2022-10-30T06:09:02.802Z,96.15
2022-10-30T06:10:02.616Z,95.79
2022-10-30T06:11:03.144Z,95.69
2022-10-30T06:12:02.184Z,95.49
2022-10-30T06:13:02.366Z,95.29
2022-10-30T06:14:02.122Z,95.08
2022-10-30T06:15:01.994Z,94.88
2022-10-30T06:16:01.830Z,94.78
2022-10-30T06:17:02.457Z,94.37
2022-10-30T06:18:02.387Z,93.86
2022-10-30T06:19:02.361Z,93.76
2022-10-30T06:20:02.600Z,93.35
2022-10-30T06:21:02.298Z,93.86
2022-10-30T06:22:03.117Z,93.86
2022-10-30T06:23:03.045Z,93.55
2022-10-30T06:24:03.151Z,93.35
2022-10-30T06:25:02.631Z,93.55
2022-10-30T06:26:02.753Z,93.96
2022-10-30T06:27:02.354Z,94.57
2022-10-30T06:28:02.430Z,95.49
2022-10-30T06:29:02.455Z,94.98
2022-10-30T06:30:02.080Z,94.98
2022-10-30T06:31:02.188Z,94.57
2022-10-30T06:32:06.544Z,94.68
2022-10-30T06:33:02.752Z,95.18
2022-10-30T06:34:02.579Z,95.69
2022-10-30T06:35:02.585Z,95.18
2022-10-30T06:36:03.017Z,95.08
2022-10-30T06:37:02.648Z,95.79
2022-10-30T06:38:02.054Z,96.15
2022-10-30T06:39:02.430Z,96.35
2022-10-30T06:40:02.267Z,96.45
2022-10-30T06:41:01.986Z,95.79
2022-10-30T06:42:02.997Z,96.25
2022-10-30T06:43:03.243Z,96.20
2022-10-30T06:44:02.411Z,96.66
2022-10-30T06:45:02.472Z,96.96
2022-10-30T06:46:02.530Z,96.96
2022-10-30T06:47:03.211Z,97.16
2022-10-30T06:48:03.405Z,96.76
2022-10-30T06:49:02.840Z,96.45
2022-10-30T06:50:02.849Z,96.20
2022-10-30T06:51:02.933Z,96.20
2022-10-30T06:52:02.572Z,96.20
2022-10-30T06:53:02.376Z,96.86
2022-10-30T06:54:01.981Z,96.76
2022-10-30T06:55:02.154Z,96.81
2022-10-30T06:56:02.281Z,96.96
2022-10-30T06:57:02.738Z,97.47
2022-10-30T06:58:02.552Z,97.06
2022-10-30T06:59:02.400Z,97.57
2022-10-30T07:00:02.135Z,96.81
2022-10-30T07:01:02.341Z,96.41
2022-10-30T07:02:04.423Z,96.30
2022-10-30T07:03:03.387Z,96.61
2022-10-30T07:04:02.439Z,97.93
2022-10-30T07:05:02.560Z,98.44
2022-10-30T07:06:02.766Z,98.54
2022-10-30T07:07:02.689Z,98.34
2022-10-30T07:08:02.549Z,98.95
2022-10-30T07:09:02.716Z,99.05
2022-10-30T07:10:03.015Z,98.75
2022-10-30T07:11:03.183Z,97.58
2022-10-30T07:12:06.738Z,98.30
2022-10-30T07:13:02.786Z,97.58
2022-10-30T07:14:02.660Z,98.30
2022-10-30T07:15:02.676Z,98.30
2022-10-30T07:16:02.850Z,97.69
2022-10-30T07:17:02.527Z,98.19
2022-10-30T07:18:03.148Z,98.39
2022-10-30T07:19:04.475Z,99.01
2022-10-30T07:20:03.144Z,98.80
2022-10-30T07:21:02.606Z,98.86
2022-10-30T07:22:02.144Z,98.66
2022-10-30T07:23:02.531Z,99.06
2022-10-30T07:24:02.655Z,99.06
2022-10-30T07:25:02.105Z,99.06
2022-10-30T07:26:04.052Z,99.27
2022-10-30T07:27:02.448Z,99.27
2022-10-30T07:28:03.256Z,98.75
2022-10-30T07:29:02.807Z,98.20
2022-10-30T07:30:02.568Z,97.89
2022-10-30T07:31:02.463Z,98.41
2022-10-30T07:32:03.702Z,98.61
2022-10-30T07:33:03.187Z,98.50
2022-10-30T07:34:03.050Z,98.61
2022-10-30T07:35:02.581Z,98.61
2022-10-30T07:36:02.479Z,98.30
2022-10-30T07:37:02.947Z,98.50
2022-10-30T07:38:03.060Z,98.46
2022-10-30T07:39:03.023Z,98.05
2022-10-30T07:40:03.553Z,98.16
2022-10-30T07:41:02.968Z,98.36
2022-10-30T07:42:02.400Z,98.46
2022-10-30T07:43:03.058Z,98.16
2022-10-30T07:44:02.672Z,97.85
2022-10-30T07:45:02.982Z,97.96
2022-10-30T07:46:02.873Z,97.71
2022-10-30T07:47:02.376Z,97.50
2022-10-30T07:48:03.266Z,97.40
2022-10-30T07:49:02.484Z,97.71
2022-10-30T07:50:02.702Z,97.40
2022-10-30T07:51:02.315Z,97.40
2022-10-30T07:52:02.906Z,97.40
2022-10-30T07:53:03.508Z,97.50
2022-10-30T07:54:03.365Z,97.30
2022-10-30T07:55:03.510Z,97.15
2022-10-30T07:56:02.905Z,97.05
2022-10-30T07:57:02.596Z,97.05
2022-10-30T07:58:03.198Z,97.15
2022-10-30T07:59:02.834Z,97.05
2022-10-30T08:00:04.555Z,97.05
2022-10-30T08:01:02.816Z,97.05
2022-10-30T08:02:02.504Z,96.84
2022-10-30T08:03:02.532Z,96.70
2022-10-30T08:04:02.765Z,96.50
2022-10-30T08:05:02.543Z,96.19
2022-10-30T08:06:02.418Z,96.19
2022-10-30T08:07:02.303Z,96.19
2022-10-30T08:08:02.507Z,96.39
2022-10-30T08:09:02.336Z,96.50
2022-10-30T08:10:01.888Z,96.60
2022-10-30T08:11:02.318Z,96.39
2022-10-30T08:12:02.236Z,96.19
2022-10-30T08:13:02.356Z,95.94
2022-10-30T08:14:02.358Z,95.74
2022-10-30T08:15:02.257Z,95.84
2022-10-30T08:16:01.954Z,95.64
2022-10-30T08:17:02.431Z,95.54
2022-10-30T08:18:02.640Z,95.43
2022-10-30T08:19:02.455Z,95.39
2022-10-30T08:20:02.401Z,95.50
2022-10-30T08:21:02.772Z,95.50
2022-10-30T08:22:02.639Z,95.39
2022-10-30T08:23:03.038Z,95.19
2022-10-30T08:24:02.555Z,95.09
2022-10-30T08:25:02.524Z,94.64
2022-10-30T08:26:02.880Z,94.84
2022-10-30T08:27:02.770Z,95.04
2022-10-30T08:28:02.835Z,95.30
2022-10-30T08:29:03.118Z,95.00
2022-10-30T08:30:02.511Z,95.10
2022-10-30T08:31:03.036Z,95.00
2022-10-30T08:32:02.427Z,95.00
2022-10-30T08:33:02.834Z,94.55
2022-10-30T08:34:02.517Z,93.94
2022-10-30T08:35:02.420Z,94.04
2022-10-30T08:36:02.786Z,94.04
2022-10-30T08:37:02.909Z,93.19
2022-10-30T08:38:03.045Z,92.88
2022-10-30T08:39:03.226Z,92.84
2022-10-30T08:40:03.070Z,92.33
2022-10-30T08:41:03.038Z,92.44
2022-10-30T08:42:02.438Z,91.93
2022-10-30T08:43:02.287Z,91.49
2022-10-30T08:44:02.745Z,91.49
2022-10-30T08:45:02.450Z,91.38
2022-10-30T08:46:02.609Z,90.98
2022-10-30T08:47:02.583Z,90.73
2022-10-30T08:48:02.733Z,90.83
2022-10-30T08:49:02.335Z,90.53
2022-10-30T08:50:02.760Z,90.43
2022-10-30T08:51:02.357Z,89.88
2022-10-30T08:52:03.000Z,89.07
2022-10-30T08:53:03.434Z,88.87
2022-10-30T08:54:03.056Z,88.97
2022-10-30T08:55:02.953Z,88.73
2022-10-30T08:56:03.061Z,88.73
2022-10-30T08:57:02.125Z,88.63
2022-10-30T08:58:02.229Z,88.63
2022-10-30T08:59:02.116Z,88.63
2022-10-30T09:00:02.316Z,88.53
2022-10-30T09:01:02.671Z,88.59
2022-10-30T09:02:02.817Z,88.68
2022-10-30T09:03:02.972Z,88.59
2022-10-30T09:04:02.342Z,88.08
2022-10-30T09:05:02.647Z,88.18
2022-10-30T09:06:02.357Z,88.24
2022-10-30T09:07:04.569Z,88.04
2022-10-30T09:08:03.469Z,88.45
2022-10-30T09:09:03.161Z,88.34
2022-10-30T09:10:02.992Z,88.75
2022-10-30T09:11:03.150Z,88.00
2022-10-30T09:12:03.322Z,87.80
2022-10-30T09:13:03.139Z,88.00
2022-10-30T09:14:03.367Z,87.60
2022-10-30T09:15:03.585Z,87.45
2022-10-30T09:16:03.270Z,86.95
2022-10-30T09:17:02.796Z,86.85
2022-10-30T09:18:03.138Z,87.15
2022-10-30T09:19:02.816Z,86.85
2022-10-30T09:20:02.613Z,87.11
2022-10-30T09:21:04.834Z,86.00
2022-10-30T09:22:03.080Z,85.20
2022-10-30T09:23:03.701Z,85.70
2022-10-30T09:24:03.089Z,84.65
2022-10-30T09:25:03.096Z,84.95
2022-10-30T09:26:02.944Z,85.36
2022-10-30T09:27:03.156Z,85.16
2022-10-30T09:28:02.863Z,85.86
2022-10-30T09:29:02.904Z,84.51
2022-10-30T09:30:03.019Z,84.11
2022-10-30T09:31:02.904Z,84.71
2022-10-30T09:32:02.775Z,84.91
2022-10-30T09:33:03.324Z,84.47
2022-10-30T09:34:02.759Z,84.88
2022-10-30T09:35:02.449Z,83.67
2022-10-30T09:36:02.525Z,83.57
2022-10-30T09:37:03.074Z,83.57
2022-10-30T09:38:03.190Z,83.37
2022-10-30T09:39:03.025Z,83.26
2022-10-30T09:40:03.182Z,83.26
2022-10-30T09:41:02.934Z,82.56
2022-10-30T09:42:02.713Z,82.82
2022-10-30T09:43:02.743Z,82.82
2022-10-30T09:44:02.428Z,82.92
2022-10-30T09:45:27.414Z,83.12
2022-10-30T09:46:02.707Z,82.38
2022-10-30T09:47:02.991Z,82.08
2022-10-30T09:48:03.024Z,82.28
2022-10-30T09:49:02.722Z,81.38
2022-10-30T09:50:02.993Z,81.38
2022-10-30T09:51:02.588Z,82.38
2022-10-30T09:52:03.292Z,82.89
2022-10-30T09:53:02.834Z,81.84
2022-10-30T09:54:03.209Z,80.83
2022-10-30T09:55:03.147Z,80.43
2022-10-30T09:56:03.326Z,80.74
2022-10-30T09:57:02.880Z,80.13
2022-10-30T09:58:03.114Z,80.74
2022-10-30T09:59:02.875Z,80.40
2022-10-30T10:00:02.845Z,80.80
2022-10-30T10:01:07.077Z,80.50
2022-10-30T10:02:02.849Z,79.69
2022-10-30T10:03:02.725Z,80.10
2022-10-30T10:04:02.678Z,80.56
2022-10-30T10:05:02.091Z,80.36
2022-10-30T10:06:02.363Z,80.16
2022-10-30T10:07:03.055Z,80.06
2022-10-30T10:08:02.938Z,80.16
2022-10-30T10:09:02.774Z,80.12
2022-10-30T10:10:02.814Z,80.52
2022-10-30T10:11:02.626Z,80.32
2022-10-30T10:12:03.152Z,80.48
2022-10-30T10:13:03.642Z,80.79
2022-10-30T10:14:02.697Z,80.38
2022-10-30T10:15:03.054Z,77.58
2022-10-30T10:16:03.147Z,77.24
2022-10-30T10:17:01.963Z,77.04
2022-10-30T10:18:02.282Z,77.44
2022-10-30T10:19:02.094Z,78.94
2022-10-30T10:20:02.071Z,79.34
2022-10-30T10:21:02.435Z,78.30
2022-10-30T10:22:02.557Z,76.70
2022-10-30T10:23:03.203Z,74.50
2022-10-30T10:24:03.081Z,74.30
2022-10-30T10:25:03.049Z,74.70
2022-10-30T10:26:03.088Z,74.70
2022-10-30T10:27:02.910Z,76.06
2022-10-30T10:28:02.119Z,75.26
2022-10-30T10:29:02.084Z,75.06
2022-10-30T10:30:02.285Z,74.16
2022-10-30T10:31:02.468Z,74.56
2022-10-30T10:32:02.397Z,74.43
2022-10-30T10:33:03.019Z,74.63
2022-10-30T10:34:02.818Z,73.93
2022-10-30T10:35:02.669Z,74.22
2022-10-30T10:36:02.859Z,73.93
2022-10-30T10:37:02.909Z,73.03
2022-10-30T10:38:02.808Z,72.79
2022-10-30T10:39:02.583Z,72.79
2022-10-30T10:40:02.215Z,73.09
2022-10-30T10:41:02.526Z,73.79
2022-10-30T10:42:02.560Z,72.49
2022-10-30T10:43:02.678Z,73.66
2022-10-30T10:44:02.650Z,72.45
2022-10-30T10:45:02.278Z,71.16
2022-10-30T10:46:02.274Z,72.96
2022-10-30T10:47:06.909Z,70.96
2022-10-30T10:48:03.077Z,71.36
2022-10-30T10:49:02.618Z,71.86
2022-10-30T10:50:02.309Z,72.72
2022-10-30T10:51:02.632Z,72.32
2022-10-30T10:52:02.567Z,72.32
2022-10-30T10:53:02.694Z,71.39
2022-10-30T10:54:02.251Z,71.29
2022-10-30T10:55:02.023Z,71.29
2022-10-30T10:56:02.249Z,71.59
2022-10-30T10:57:02.392Z,72.05
2022-10-30T10:58:02.194Z,71.06
2022-10-30T10:59:02.208Z,70.06
2022-10-30T11:00:02.377Z,70.16
2022-10-30T11:01:02.174Z,70.95
2022-10-30T11:02:02.613Z,70.92
2022-10-30T11:03:04.049Z,70.12
2022-10-30T11:04:03.480Z,69.32
2022-10-30T11:05:03.197Z,69.73
2022-10-30T11:06:03.530Z,70.09
2022-10-30T11:07:03.476Z,69.29
2022-10-30T11:08:02.671Z,68.10
2022-10-30T11:09:02.483Z,69.29
2022-10-30T11:10:02.711Z,68.90
2022-10-30T11:11:02.447Z,68.60
2022-10-30T11:12:02.831Z,67.70
2022-10-30T11:13:02.451Z,68.37
2022-10-30T11:14:02.911Z,68.46
2022-10-30T11:15:02.995Z,68.56
2022-10-30T11:16:03.056Z,69.06
2022-10-30T11:17:02.889Z,69.56
2022-10-30T11:18:02.715Z,70.03
2022-10-30T11:19:02.893Z,68.03
2022-10-30T11:20:02.873Z,68.13
2022-10-30T11:21:02.878Z,67.20
2022-10-30T11:22:03.071Z,66.61
2022-10-30T11:23:03.091Z,68.10
2022-10-30T11:24:03.048Z,67.80
2022-10-30T11:25:03.194Z,67.10
2022-10-30T11:26:02.932Z,67.17
2022-10-30T11:27:03.116Z,66.77
2022-10-30T11:28:02.925Z,66.77
2022-10-30T11:29:03.163Z,65.88
2022-10-30T11:30:03.321Z,64.75
2022-10-30T11:31:02.729Z,64.75
2022-10-30T11:32:03.270Z,64.55
2022-10-30T11:33:03.501Z,64.06
2022-10-30T11:34:03.099Z,64.36
2022-10-30T11:35:02.916Z,65.75
2022-10-30T11:36:03.550Z,65.75
2022-10-30T11:37:03.436Z,64.95
2022-10-30T11:38:03.510Z,65.22
2022-10-30T11:39:03.570Z,64.62
2022-10-30T11:40:03.260Z,63.92
2022-10-30T11:41:03.316Z,64.03
2022-10-30T11:42:03.134Z,64.22
2022-10-30T11:43:03.287Z,64.09
2022-10-30T11:44:02.890Z,62.40
2022-10-30T11:45:03.014Z,62.73
2022-10-30T11:46:02.980Z,63.03
2022-10-30T11:47:02.670Z,63.13
2022-10-30T11:48:04.523Z,63.79
2022-10-30T11:49:03.548Z,64.89
2022-10-30T11:50:03.592Z,63.40
2022-10-30T11:51:03.478Z,63.40
2022-10-30T11:52:03.067Z,62.50
2022-10-30T11:53:03.301Z,61.91
2022-10-30T11:54:03.637Z,62.60
2022-10-30T11:55:03.475Z,62.70
2022-10-30T11:56:03.655Z,61.51
2022-10-30T11:57:03.884Z,62.30
2022-10-30T11:58:03.337Z,63.17
2022-10-30T11:59:02.501Z,62.47
2022-10-30T12:00:05.488Z,62.18
2022-10-30T12:01:02.576Z,60.88
2022-10-30T12:02:03.086Z,62.57
2022-10-30T12:03:02.675Z,62.27
2022-10-30T12:04:02.255Z,61.48
2022-10-30T12:05:02.326Z,60.98
2022-10-30T12:06:02.176Z,61.68
2022-10-30T12:07:02.565Z,60.39
2022-10-30T12:08:02.348Z,60.42
2022-10-30T12:09:02.146Z,61.11
2022-10-30T12:10:02.160Z,60.28
2022-10-30T12:11:02.201Z,61.18
2022-10-30T12:12:06.675Z,61.58
2022-10-30T12:13:02.620Z,62.37
2022-10-30T12:14:02.751Z,62.37
2022-10-30T12:15:02.542Z,60.46
2022-10-30T12:16:02.621Z,61.45
2022-10-30T12:17:02.858Z,60.85
2022-10-30T12:18:02.019Z,60.26
2022-10-30T12:19:01.912Z,61.45
2022-10-30T12:20:01.934Z,60.75
2022-10-30T12:21:01.920Z,60.83
2022-10-30T12:22:03.031Z,59.83
2022-10-30T12:23:02.491Z,59.74
2022-10-30T12:24:02.605Z,60.53
2022-10-30T12:25:02.545Z,59.23
2022-10-30T12:26:02.417Z,60.63
2022-10-30T12:27:02.321Z,60.33
2022-10-30T12:28:02.652Z,58.94
2022-10-30T12:29:03.073Z,58.84
2022-10-30T12:30:08.251Z,59.23
2022-10-30T12:31:02.672Z,60.13
2022-10-30T12:32:03.012Z,59.04
2022-10-30T12:33:02.772Z,59.36
2022-10-30T12:34:02.634Z,59.66
2022-10-30T12:35:02.004Z,59.86
2022-10-30T12:36:02.252Z,58.67
2022-10-30T12:37:02.450Z,60.16
2022-10-30T12:38:03.172Z,61.25
2022-10-30T12:39:02.704Z,60.16
2022-10-30T12:40:02.508Z,59.47
2022-10-30T12:41:03.028Z,59.79
2022-10-30T12:42:03.210Z,60.69
2022-10-30T12:43:02.637Z,60.69
2022-10-30T12:44:02.605Z,60.98
2022-10-30T12:45:03.033Z,59.79
2022-10-30T12:46:03.029Z,60.39
2022-10-30T12:47:02.777Z,61.88
2022-10-30T12:48:02.637Z,61.68
2022-10-30T12:49:01.937Z,62.47
2022-10-30T12:50:02.419Z,60.58
2022-10-30T12:51:02.153Z,61.18
2022-10-30T12:52:01.845Z,61.11
2022-10-30T12:53:02.668Z,61.80
2022-10-30T12:54:02.570Z,61.51
2022-10-30T12:55:02.729Z,61.71
2022-10-30T12:56:02.889Z,61.80